Benedic Solidaris

LE CHALLENGE DU BRABANT WALLON

19 courses réparties sport05.gif (4991 octets) ... dans tout le Brabant Wallon

Antipode TV COM

MESSAGE:
Un coureur ne trouve plus ses chaussures après la course de Sart-Risbart. Elles étaient placées dans un petit sac noir. Si vous avez des informations, contactez-nous.

NIVELLES

  Nom Prenom Club Categorie Temps
1 WEITKUNAT BAPTISTE   M/20-29/1 15:22
2 GREGOIRE VALENTIN OSGA M/15-19/1 15:23
3 FRANCOIS CHRISTOPPHE NAC M/40-49/1 15:39
4 PIRAUX OLIVIER TRAKKS M/20-29/2 15:46
5 VALEWYNS ANNE   D/20-29/1 16:03
6 HAMICH MHAMED   M/40-49/2 16:15
7 DELPIERRE ROMAIN TRIGT M/20-29/3 16:22
8 LENVAIN JEF TOUS A BORD M/30-39/1 16:31
9 GEISER NICOLAS   M/20-29/4 17:18
10 DE VREESE DAMIEN NAC M/30-39/2 17:21
11 GUERLEMENT NICOLAS   M/30-39/3 17:52
12 DE JONGH STEVE   M/40-49/3 18:38
13 BOTTE VINCENT ETE M/40-49/4 18:42
14 VANDENBOSCH FLYNN   M/15-19/2 18:58
15 DELTEL BRUNO   M/40-49/5 19:12
16 NAHON EMILE   M/15-19/3 19:14
17 DERAEMAEKER CORENTIN ET ENGHIEN M/15-19/4 19:16
18 PAUWELS ANTHONY CABW M/15-19/5 19:18
19 DELAUNOY VINCENT RC NAMUR M/50-59/1 19:26
20 VANRIE MAX   M/15-19/6 19:32
21 BRABANT NOAM   M/15-19/7 19:47
22 COLLET MATHIS   M/15-19/8 19:54
23 TRIBOLET CELINE   D/30-39/1 20:06
24 WILWERTZ DIMITRI   M/15-19/9 20:14
25 MAHAUT RAPHAEL   M/15-19/10 20:21
26 WILWERTZ PHILIPPE   M/40-49/6 20:22
27 RAISI SAID   M/30-39/4 20:24
28 DARAHAIN NOAH   M/15-19/11 20:28
29 KIBONGE NDOKPO THEODORE   M/15-19/12 20:30
30 TITTEL SEBASTIEN RONVAU M/40-49/7 20:31
31 DE COSTER CEDRIC   M/30-39/5 20:34
32 BIOT THEO   M/15-19/13 20:36
33 DEBRUYN THIERRY JAMES M/50-59/2 20:37
34 MACKONIEME INGA   D/40-49/1 20:39
35 GERBOUX OLIVIER   M/40-49/8 20:51
36 MOREAU JULES   M/15-19/14 21:10
37 TERRUZZI GEOFFFROY   M/30-39/6 21:30
38 PARMENTIER LUNA   D/15-19/1 21:35
39 COLPAERT DAVID   M/20-29/5 21:39
40 PHILIPPON RAPHAEL   M/20-29/6 21:59
41 SEVRIN JOSEPHINE   D/15-19/2 22:03
42 PAARCOERIER TOM   M/40-49/9 22:13
43 RESTAINO ANTONIO   M/20-29/7 22:16
44 INGEBOS CLEMENT   M/15-19/15 22:26
45 BAUDSON CAROLINE   D/30-39/2 22:36
46 THIRION MARIUS   M/15-19/16 22:43
47 THIRION XAVIER JAMES M/40-49/10 22:50
48 PREVINAIRE ZOE   D/15-19/3 22:52
49 MAYENS CAROLINE   D/30-39/3 22:56
50 LAMBERT OLIVIER   M/40-49/11 23:02
51 GERMAIN ANTOINE   M/15-19/17 23:23
52 SCHETTER SIMON   M/15-19/18 23:25
53 BANIER THOMAS   M/15-19/19 23:28
54 TINICK DANIEL NAC M/70 &+/1 23:32
55 HARVENT JEAN-CLAUDE   M/60-69/1 23:44
56 MAISSIN ARTHUR   M/15-19/20 23:48
57 MAQUET MATHIEU ETE M/20-29/8 23:50
58 KIBONGE AUGUSTIN   M/15-19/21 23:53
59 MOREAU ARTHUR   M/15-19/22 23:55
60 MATHIEU VICTOR   M/15-19/23 24:02
61 PUZZO VINCENZA   D/50-59/1 24:08
62 DEVILLE ANNE ET ENGHIEN D/40-49/2 24:11
63 MARECHAL JONAS RC NAMUR M/15-19/24 24:14
64 ELSEN PHILIPPE   M/60-69/2 24:16
65 BUISSIN SARAH   D/15-19/4 24:20
66 DERUYTER DIDIER JC ESTIN M/60-69/3 24:25
67 DUFRENNE XAVIER   M/30-39/7 24:34
68 JORBENS SASHA   D/15-19/5 24:45
69 JONCKERS PITCH   M/50-59/3 24:48
70 HENRY MATTHIEU   M/15-19/25 24:55
71 SAMAIN CHLOE   D/15-19/6 25:00
72 LESIRE BAPTISTE   M/15-19/26 25:04
73 POLOME MANON   D/20-29/2 25:18
74 CORNELIS ERIC   M/50-59/4 25:25
75 BEKERS NOEL ADDM OGY M/70 &+/2 25:28
76 FAYT EDGAR   M/15-19/27 25:31
77 NTAGANDA MATISSE   M/15-19/28 25:33
78 DUMONT LUDIVINE MUTUALITE CHRETIENNE D/40-49/3 25:35
79 DERECK SAM   M/15-19/29 25:39
80 CHR HUBERT   M/50-59/5 25:43
81 FRANCOIS REGINE   D/40-49/4 25:46
82 TAGLIERI ANTHONY   M/30-39/8 25:48
83 VINCENT FLORENCE   D/40-49/5 25:51
84 GALVEZ DIAZ DIEGO   M/15-19/30 25:56
85 CHARLIER BERNARD   M/50-59/6 26:02
86 VINCENT ALBERT ET ENGHIEN M/60-69/4 26:06
87 DELHAYE NICOLAS TEST M/30-39/9 26:09
88 BANIER RAPHAEL   M/40-49/12 26:16
89 VANCASTER MARTIN   M/15-19/31 26:33
90 CAMBERLIN ROMAIN   M/15-19/32 26:37
91 DE BOCK LAETITIA   D/15-19/7 26:48
92 MATTENS DOHAN   M/30-39/10 26:54
93 DE CODT BRIGITTE   D/50-59/2 26:56
94 VANDERVOORT MICHELINE NAC D/60-69/1 27:03
95 GILLAIN LEA   D/15-19/8 27:06
96 PIERARD LEONARD   M/15-19/33 27:14
97 ERTVELD ERIC HAC M/50-59/7 27:20
98 DEWEL XAVIER   M/20-29/9 27:25
99 HERTOGHS DOMINIQUE USBW ROAD TEAM D/30-39/4 27:30
100 LEFEVRE OCTAVE   M/15-19/34 27:35
101 DEVOS ROBIN   M/15-19/35 27:37
102 DECORTE REMY   M/20-29/10 27:40
103 COSYNS ELISE   D/30-39/5 27:43
104 COLUSSI CHRISTINE   D/40-49/6 27:48
105 LELOUX JULIEN   M/15-19/36 27:52
106 BAILLY MATHIS   M/15-19/37 27:55
107 HAEGEMAN CATHY   D/30-39/6 27:59
108 MUTONI SHADIA   D/40-49/7 28:02
109 PANEPINTO ELISABETH   D/20-29/3 28:06
110 ZUMBULTAS MELEK   D/40-49/8 28:09
111 VANTIEGHEM SANDRINE   D/40-49/9 28:15
112 VANTIEGHEM DELPHINE   D/40-49/10 28:18
113 HOUPPE JEAN-FRANCOIS NAC M/40-49/13 28:21
114 BIERLAIRE LUNE   D/15-19/9 28:24
115 ROOSE MATTHIEU   M/20-29/11 28:27
116 DEMARETS JOEL NAC M/60-69/5 28:29
117 LANGE LAURENCE   D/50-59/3 28:32
118 AVAU MAGDA JOG BEER D/60-69/2 28:34
119 HARDY YSALINE   D/15-19/10 28:37
120 DURITA JANIKA JET M/50-59/8 28:40
121 FALLIER CLOUIS   M/15-19/38 28:46
122 ARNOLDI AXELLE   D/15-19/11 28:52
123 NIKOLAIDOU EIRINI   D/40-49/11 28:54
124 GAFTARNIK JULIEN   M/15-19/39 28:56
125 MARY SEBASTIEN   M/20-29/12 28:56
126 DEMARET LOUISE   D/15-19/12 29:00
127 STIENNON ARWEN   D/15-19/13 29:02
128 ROSE ALEXANDRE   M/50-59/9 29:03
129 DEMARET ZOE   D/15-19/14 29:07
130 DEMARET FRANCOIS   M/30-39/11 29:12
131 JACQUES MAXIME   M/15-19/40 29:16
132 JACQUES NICOLAS   M/40-49/14 29:17
133 TABURIAU LUCIE   D/15-19/15 29:20
134 VAN HECKE ASTRID   D/15-19/16 29:22
135 HOUTRELLE MARCEL   M/70 &+/3 29:25
136 DANNEAU CLEMENTINE JET D/15-19/17 29:27
137 LAURENT MARIE   D/20-29/4 29:30
138 BRABANY CATHY   D/30-39/7 29:34
139 DERAEMAEKER AMANDINE ET ENGHIEN D/15-19/18 29:38
140 DEMOL MAXENCE   M/15-19/41 29:40
141 DELVAUX PHILIPPE   M/40-49/15 29:43
142 CERINI CARLA ESM D/50-59/4 29:47
143 WALLEWYNS ANNE   D/40-49/12 30:09
144 MERCENIER PIERRE   M/70 &+/4 30:12
145 PIERSON OLIVIER JAMES M/50-59/10 30:15
146 REDONDO PEDRO RCB M/60-69/6 30:17
147 ANTOINE ALAIN RC NAMUR M/50-59/11 30:27
148 BAILLY ARNAUD   M/40-49/16 30:34
149 DIEUDONNE DELPHINE   D/30-39/8 30:40
150 DETRY LOUISE   D/15-19/19 30:46
151 REUZEAU ANNE SOPHIE   D/20-29/5 30:48
152 JANSSENS LAURA   D/50-59/5 30:56
153 DERESE THIERRY   M/50-59/12 31:18
154 VAN DEN HAUTE LIZA   D/15-19/20 31:26
155 BABETTE BERNARD   M/50-59/13 31:32
156 BABETTE MARIE   D/20-29/6 31:34
157 TURINE GAETANE   D/30-39/9 31:36
158 HENS JULIE   D/40-49/13 31:52
159 VANCAUTEREN CHANTAL   D/50-59/6 31:55
160 MENDOLIA ROSALBA   D/40-49/14 31:58
161 FLAMENT NATHALIE   D/40-49/15 32:04
162 LAURENT MARIE   D/20-29/7 32:07
163 HAULET NICOLAS   M/15-19/42 32:09
164 VERMONT SANDY   D/40-49/16 32:11
165 RACEM YASMINE   D/40-49/17 32:15
166 PUZZO VINCENZA   D/50-59/7 32:17
167 PHILIPPON ANAIS   D/30-39/10 32:20
168 SAMAIN VANESSA   D/30-39/11 32:27
169 SOETENS FLORE   D/20-29/8 32:29
170 VAN DEN HAUTE KABEN   D/15-19/21 32:32
171 VERBEIREN KATYA ET ENGHIEN D/40-49/18 32:36
172 HAVELANGE BAUDOUIN   M/50-59/14 32:39
173 BACCUS EMILIE   D/15-19/22 32:41
174 POIGNIE CHANTAL   D/50-59/8 32:43
175 PATERNOTTE ISABELLE   D/40-49/19 32:45
176 DE GREEF ESTHER   D/40-49/20 32:48
177 DE GREEFF STEPHANIE   D/40-49/21 32:50
178 VANDEPONTSEELE SOPHIE   D/40-49/22 32:56
179 BALZAT GABRIELLE   D/30-39/12 32:59
180 LAMBERT FRANCIS RONVAU M/60-69/7 33:37
181 DUJACQUIER VALERIE   D/15-19/23 33:45
182 MOLLE CLARA   D/15-19/24 33:50
183 PHILIPPON ANAIS   D/30-39/13 33:52
184 PHILIPPON RAPHAEL   M/20-29/13 33:54
185 SODOYE CAROLINE   D/40-49/23 33:56
186 WAEGENAERE GIULIA   D/15-19/25 34:02
187 VALDES SUSANA   D/50-59/9 34:04
188 REGHEM VALENTIN ACLO M/15-19/43 34:08
189 PILATE AMANDINE   D/30-39/14 34:53
190 PILLEZ JEAN-PIERRE CRAC M/50-59/15 35:16
191 WILLEM MARGAUX   D/20-29/9 35:27
192 VAN WIELE STEPHANIE   D/30-39/15 35:29
193 LEGRAND GWENAËLLE   D/20-29/10 35:31
194 LECOCQ COLETTE RUNNING GREZ D/60-69/3 35:54
195 TABARY AMBRE   D/15-19/26 35:57
196 GUERREIRO MATHIAS   M/15-19/44 35:59
197 BOUDART EMILIEN   M/15-19/45 36:02
198 VANDERCRUYSSEN ZOE   D/15-19/27 36:05
199 MEERT GENEVIEVE   D/40-49/24 36:22
200 OUINDI KAYSAN   M/15-19/46 36:30
201 DELANGHE OLIVIA   D/15-19/28 36:46
202 LECONTE CHRISTOPHE   M/20-29/14 37:12
203 BILLE COLETTE   D/20-29/11 37:14
204 OBLAS VALERIE   D/30-39/16 37:20
205 FAUVARQUE MARTINE NAC D/70 &+/1 37:43
206 DURITA SNJEZANA JET D/50-59/10 38:55
207 DE NECKERE BENEDICTE   D/40-49/25 39:01
208 LAURENT NICOLETTE   D/20-29/12 39:20
209 VANDEROOST ALIX   D/15-19/29 39:25